Time;durP1;ratioP1;P1;durP2;ratioP2;P2;SDS_P1;SDS_P2;PMS_P1;PMS_P2;Temp;Humidity;BMP_temperature;BMP_pressure;BME280_temperature;BME280_humidity;BME280_pressure;Samples;Min_cycle;Max_cycle;Signal;HPM_P1;HPM_P2
2023/01/02 00:01:20;;;;;;;4.60;2.55;;;;;;;;;;4924222;28;20043;-68
2023/01/02 00:03:45;;;;;;;3.53;2.80;;;;;;;;;;4925605;29;20758;-68
2023/01/02 00:06:10;;;;;;;3.70;2.45;;;;;;;;;;4925772;28;21048;-67
2023/01/02 00:08:36;;;;;;;3.63;2.80;;;;;;;;;;4925871;29;20232;-67
2023/01/02 00:11:02;;;;;;;3.60;2.25;;;;;;;;;;4924343;28;20601;-70
2023/01/02 00:13:27;;;;;;;4.15;2.70;;;;;;;;;;4924673;28;20055;-69
2023/01/02 00:15:53;;;;;;;4.63;2.90;;;;;;;;;;4925357;29;20816;-69
2023/01/02 00:18:18;;;;;;;4.40;2.88;;;;;;;;;;4925601;28;20051;-68
2023/01/02 00:20:43;;;;;;;4.05;2.70;;;;;;;;;;4938420;29;20047;-69
2023/01/02 00:23:09;;;;;;;3.85;2.78;;;;;;;;;;4924585;28;20523;-67
2023/01/02 00:25:35;;;;;;;4.00;2.97;;;;;;;;;;4940539;28;20051;-65
2023/01/02 00:28:01;;;;;;;4.68;3.08;;;;;;;;;;4926321;29;20047;-67
2023/01/02 00:30:27;;;;;;;4.57;2.83;;;;;;;;;;4925430;28;20044;-65
2023/01/02 00:32:52;;;;;;;3.88;2.67;;;;;;;;;;4925388;29;20043;-66
2023/01/02 00:35:17;;;;;;;4.57;3.10;;;;;;;;;;4925269;28;20059;-64
2023/01/02 00:37:43;;;;;;;7.38;3.17;;;;;;;;;;4926162;28;20075;-65
2023/01/02 00:40:12;;;;;;;3.53;2.95;;;;;;;;;;4940424;28;20130;-64
2023/01/02 00:42:39;;;;;;;4.00;3.03;;;;;;;;;;4926413;28;20070;-66
2023/01/02 00:45:05;;;;;;;5.70;2.95;;;;;;;;;;4925490;28;20055;-66
2023/01/02 00:47:31;;;;;;;3.78;2.88;;;;;;;;;;4925606;28;20056;-65
2023/01/02 00:49:56;;;;;;;3.92;2.92;;;;;;;;;;4924960;28;20059;-64
2023/01/02 00:52:21;;;;;;;4.57;2.70;;;;;;;;;;4924690;28;20690;-64
2023/01/02 00:54:47;;;;;;;6.35;2.80;;;;;;;;;;4924168;28;20051;-66
2023/01/02 00:57:12;;;;;;;4.10;2.85;;;;;;;;;;4924990;29;20083;-63
2023/01/02 00:59:38;;;;;;;4.65;3.20;;;;;;;;;;4923805;28;20412;-64
2023/01/02 01:02:03;;;;;;;5.18;2.90;;;;;;;;;;4924748;29;20047;-64
2023/01/02 01:04:32;;;;;;;6.47;3.10;;;;;;;;;;4924654;29;20265;-64
2023/01/02 01:06:57;;;;;;;4.82;3.08;;;;;;;;;;4923473;28;20417;-64
2023/01/02 01:09:23;;;;;;;4.40;3.08;;;;;;;;;;4924620;29;20497;-64
2023/01/02 01:11:48;;;;;;;4.80;3.15;;;;;;;;;;4924203;28;20198;-64
2023/01/02 01:14:13;;;;;;;5.18;3.13;;;;;;;;;;4923699;29;20043;-67
2023/01/02 01:16:39;;;;;;;3.45;3.00;;;;;;;;;;4922916;29;20047;-66
2023/01/02 01:19:04;;;;;;;4.57;3.13;;;;;;;;;;4922174;28;20138;-64
2023/01/02 01:21:30;;;;;;;3.92;2.85;;;;;;;;;;4921625;29;20067;-64
2023/01/02 01:23:55;;;;;;;4.50;3.00;;;;;;;;;;4922725;28;20117;-64
2023/01/02 01:26:21;;;;;;;5.57;2.83;;;;;;;;;;4923151;29;20071;-66
2023/01/02 01:28:47;;;;;;;3.67;2.72;;;;;;;;;;4924060;28;20415;-64
2023/01/02 01:31:14;;;;;;;4.50;2.92;;;;;;;;;;4923526;28;20047;-63
2023/01/02 01:33:41;;;;;;;3.80;2.92;;;;;;;;;;4924321;29;20057;-66
2023/01/02 01:36:09;;;;;;;3.55;2.53;;;;;;;;;;4924085;28;20047;-64
2023/01/02 01:38:34;;;;;;;3.58;2.70;;;;;;;;;;4923951;28;20076;-65
2023/01/02 01:41:01;;;;;;;3.38;2.63;;;;;;;;;;4923071;28;20094;-64
2023/01/02 01:43:36;;;;;;;3.03;2.42;;;;;;;;;;4938629;29;20138;-64
2023/01/02 01:46:05;;;;;;;3.70;2.30;;;;;;;;;;4923945;29;20166;-66
2023/01/02 01:48:31;;;;;;;3.38;2.38;;;;;;;;;;4923108;28;20055;-65
2023/01/02 01:50:56;;;;;;;2.38;2.17;;;;;;;;;;4922771;28;20058;-64
2023/01/02 01:53:23;;;;;;;6.55;2.33;;;;;;;;;;4924026;28;20786;-66
2023/01/02 01:56:00;;;;;;;2.97;2.40;;;;;;;;;;4924059;29;20075;-65
2023/01/02 01:58:30;;;;;;;5.07;2.58;;;;;;;;;;4922897;29;20708;-68
2023/01/02 02:00:56;;;;;;;3.17;2.50;;;;;;;;;;4922044;28;20047;-66
2023/01/02 02:03:25;;;;;;;2.83;2.22;;;;;;;;;;4923385;29;20070;-66
2023/01/02 02:05:51;;;;;;;3.78;2.42;;;;;;;;;;4923635;28;20048;-63
2023/01/02 02:08:44;;;;;;;2.78;2.22;;;;;;;;;;4923944;29;20102;-65
2023/01/02 02:11:12;;;;;;;3.95;2.58;;;;;;;;;;4921914;28;20227;-64
2023/01/02 02:13:38;;;;;;;3.63;2.38;;;;;;;;;;4923789;28;20056;-65
2023/01/02 02:16:11;;;;;;;2.80;2.20;;;;;;;;;;4923613;29;20117;-63
2023/01/02 02:18:45;;;;;;;3.72;2.28;;;;;;;;;;4923558;28;20063;-62
2023/01/02 02:21:39;;;;;;;2.88;2.30;;;;;;;;;;4940877;28;20519;-65
2023/01/02 02:24:42;;;;;;;3.47;2.30;;;;;;;;;;4942718;28;20110;-63
2023/01/02 02:27:31;;;;;;;2.53;2.13;;;;;;;;;;4942298;28;20047;-64
2023/01/02 02:30:02;;;;;;;3.17;2.20;;;;;;;;;;4941718;28;20138;-64
2023/01/02 02:32:36;;;;;;;3.30;2.47;;;;;;;;;;4940789;28;20043;-65
2023/01/02 02:35:22;;;;;;;3.28;2.30;;;;;;;;;;4942241;28;20061;-63
2023/01/02 02:38:10;;;;;;;2.97;2.25;;;;;;;;;;4942509;28;20457;-66
2023/01/02 02:40:46;;;;;;;3.67;2.20;;;;;;;;;;4956539;28;20113;-66
2023/01/02 02:43:43;;;;;;;3.83;2.38;;;;;;;;;;4954743;28;20134;-65
2023/01/02 02:46:30;;;;;;;3.22;2.25;;;;;;;;;;4942824;28;20059;-64
2023/01/02 02:49:07;;;;;;;3.38;2.00;;;;;;;;;;4941772;28;20493;-64
2023/01/02 02:51:58;;;;;;;3.28;2.30;;;;;;;;;;4941731;28;20590;-66
2023/01/02 02:54:30;;;;;;;2.50;2.08;;;;;;;;;;4940097;28;20165;-64
2023/01/02 02:56:56;;;;;;;2.28;2.08;;;;;;;;;;4952915;28;20066;-65
2023/01/02 02:59:22;;;;;;;2.22;1.70;;;;;;;;;;4935545;28;20390;-65
2023/01/02 03:01:48;;;;;;;2.33;1.70;;;;;;;;;;4922943;28;20044;-65
2023/01/02 03:04:20;;;;;;;4.25;2.25;;;;;;;;;;4923040;29;20058;-66
2023/01/02 03:07:10;;;;;;;2.17;1.98;;;;;;;;;;4922967;28;20055;-67
2023/01/02 03:09:51;;;;;;;2.85;2.03;;;;;;;;;;4923480;29;20066;-66
2023/01/02 03:12:49;;;;;;;2.47;2.08;;;;;;;;;;4923468;28;20072;-66
2023/01/02 03:15:27;;;;;;;2.50;1.90;;;;;;;;;;4936363;28;20059;-68
2023/01/02 03:18:08;;;;;;;2.20;1.90;;;;;;;;;;4927001;28;20515;-67
2023/01/02 03:20:44;;;;;;;5.15;2.45;;;;;;;;;;4940512;29;20051;-65
2023/01/02 03:23:19;;;;;;;3.25;2.50;;;;;;;;;;4926570;28;20083;-65
2023/01/02 03:25:46;;;;;;;2.42;1.98;;;;;;;;;;4926600;29;20052;-64
2023/01/02 03:28:15;;;;;;;2.38;2.10;;;;;;;;;;4925980;28;20047;-66
2023/01/02 03:30:42;;;;;;;3.17;2.20;;;;;;;;;;4925199;28;20051;-67
2023/01/02 03:33:18;;;;;;;2.72;2.20;;;;;;;;;;4926969;28;20142;-66
2023/01/02 03:35:48;;;;;;;2.40;2.00;;;;;;;;;;4927021;28;20631;-66
2023/01/02 03:38:21;;;;;;;3.95;1.92;;;;;;;;;;4926415;29;20047;-65
2023/01/02 03:40:53;;;;;;;2.17;1.95;;;;;;;;;;4926193;28;20043;-65
2023/01/02 03:43:28;;;;;;;3.10;2.03;;;;;;;;;;4927026;29;20048;-65
2023/01/02 03:46:00;;;;;;;3.13;2.00;;;;;;;;;;4926954;29;20094;-66
2023/01/02 03:48:52;;;;;;;4.05;2.10;;;;;;;;;;4925272;28;20072;-63
2023/01/02 03:51:17;;;;;;;2.70;2.17;;;;;;;;;;4945497;28;20052;-64
2023/01/02 03:53:43;;;;;;;2.90;1.80;;;;;;;;;;4927207;28;20051;-64
2023/01/02 03:56:31;;;;;;;3.25;1.90;;;;;;;;;;4927560;28;20093;-64
2023/01/02 03:59:18;;;;;;;2.45;1.80;;;;;;;;;;4927301;28;20493;-64
2023/01/02 04:01:51;;;;;;;2.28;1.90;;;;;;;;;;4926503;29;20063;-64
2023/01/02 04:04:42;;;;;;;3.20;1.42;;;;;;;;;;4927767;29;20047;-64
2023/01/02 04:07:14;;;;;;;2.20;1.70;;;;;;;;;;4927222;28;20048;-64
2023/01/02 04:09:41;;;;;;;1.80;1.42;;;;;;;;;;4927520;29;20063;-63
2023/01/02 04:12:11;;;;;;;1.77;1.45;;;;;;;;;;4926380;28;20047;-63
2023/01/02 04:14:45;;;;;;;2.33;1.60;;;;;;;;;;4942221;28;20129;-67
2023/01/02 04:17:13;;;;;;;1.98;1.48;;;;;;;;;;4927107;28;20055;-64
2023/01/02 04:19:53;;;;;;;3.58;1.80;;;;;;;;;;4926135;29;20043;-64
2023/01/02 04:22:29;;;;;;;1.77;1.65;;;;;;;;;;4925636;28;20139;-63
2023/01/02 04:25:18;;;;;;;3.50;1.83;;;;;;;;;;4926338;28;20052;-63
2023/01/02 04:27:57;;;;;;;2.60;1.75;;;;;;;;;;4925171;29;20670;-65
2023/01/02 04:30:22;;;;;;;1.98;1.77;;;;;;;;;;4939680;28;20059;-63
2023/01/02 04:32:48;;;;;;;1.88;1.50;;;;;;;;;;4938670;29;20051;-64
2023/01/02 04:35:17;;;;;;;1.70;1.60;;;;;;;;;;4939969;28;20067;-64
2023/01/02 04:37:44;;;;;;;1.90;1.45;;;;;;;;;;4925333;29;20059;-63
2023/01/02 04:40:12;;;;;;;2.08;1.40;;;;;;;;;;4939446;29;20541;-64
2023/01/02 04:42:37;;;;;;;2.20;1.60;;;;;;;;;;4925447;28;20063;-63
2023/01/02 04:45:03;;;;;;;1.52;1.25;;;;;;;;;;4923961;29;20052;-65
2023/01/02 04:47:29;;;;;;;1.58;1.38;;;;;;;;;;4925844;28;20058;-66
2023/01/02 04:49:54;;;;;;;1.65;1.40;;;;;;;;;;4925458;28;20048;-65
2023/01/02 04:52:19;;;;;;;1.63;1.52;;;;;;;;;;4923441;29;20040;-64
2023/01/02 04:54:45;;;;;;;1.92;1.73;;;;;;;;;;4923491;28;20060;-66
2023/01/02 04:57:10;;;;;;;1.60;1.50;;;;;;;;;;4939731;29;20051;-65
2023/01/02 04:59:35;;;;;;;2.50;1.75;;;;;;;;;;4926485;28;20205;-65
2023/01/02 05:02:01;;;;;;;3.65;1.80;;;;;;;;;;4924996;28;20047;-67
2023/01/02 05:04:27;;;;;;;1.75;1.60;;;;;;;;;;4939821;29;20702;-67
2023/01/02 05:06:52;;;;;;;1.98;1.60;;;;;;;;;;4923556;28;20055;-65
2023/01/02 05:09:17;;;;;;;2.10;1.73;;;;;;;;;;4925468;28;20428;-66
2023/01/02 05:11:44;;;;;;;2.05;1.60;;;;;;;;;;4924579;28;20051;-65
2023/01/02 05:14:10;;;;;;;2.10;1.40;;;;;;;;;;4925409;29;21114;-65
2023/01/02 05:16:35;;;;;;;1.60;1.50;;;;;;;;;;4924537;28;20108;-65
2023/01/02 05:19:00;;;;;;;2.40;1.65;;;;;;;;;;4939444;28;20058;-65
2023/01/02 05:24:10;;;;;;;2.13;1.60;;;;;;;;;;4925446;28;20060;-65
2023/01/02 05:26:36;;;;;;;1.85;1.52;;;;;;;;;;4926089;29;20052;-66
2023/01/02 05:29:01;;;;;;;2.35;1.50;;;;;;;;;;4924077;28;20134;-68
2023/01/02 05:31:27;;;;;;;2.65;1.50;;;;;;;;;;4924966;29;20093;-65
2023/01/02 05:33:53;;;;;;;4.32;1.70;;;;;;;;;;4924838;29;20039;-65
2023/01/02 05:36:20;;;;;;;1.65;1.50;;;;;;;;;;4924816;28;20464;-64
2023/01/02 05:38:46;;;;;;;1.95;1.55;;;;;;;;;;4922843;29;20044;-65
2023/01/02 05:41:11;;;;;;;2.58;1.40;;;;;;;;;;4924616;28;20051;-65
2023/01/02 05:43:37;;;;;;;1.98;1.73;;;;;;;;;;4924818;29;20087;-64
2023/01/02 05:46:11;;;;;;;1.98;1.50;;;;;;;;;;4923671;29;20063;-64
2023/01/02 05:48:37;;;;;;;2.33;1.30;;;;;;;;;;4924525;28;20111;-65
2023/01/02 05:51:05;;;;;;;1.70;1.30;;;;;;;;;;4921957;29;20055;-66
2023/01/02 05:53:31;;;;;;;2.45;1.50;;;;;;;;;;4924206;28;21320;-66
2023/01/02 05:56:08;;;;;;;1.85;1.60;;;;;;;;;;4922426;29;20051;-65
2023/01/02 05:58:35;;;;;;;2.67;1.60;;;;;;;;;;4924312;29;20059;-65
2023/01/02 06:01:09;;;;;;;1.58;1.33;;;;;;;;;;4923808;28;20583;-64
2023/01/02 06:03:35;;;;;;;1.73;1.20;;;;;;;;;;4924834;28;20047;-63
2023/01/02 06:06:06;;;;;;;1.77;1.63;;;;;;;;;;4940648;28;21077;-64
2023/01/02 06:08:32;;;;;;;1.75;1.60;;;;;;;;;;4924930;28;20543;-64
2023/01/02 06:10:57;;;;;;;4.40;1.42;;;;;;;;;;4923440;28;20051;-64
2023/01/02 06:13:22;;;;;;;2.30;1.50;;;;;;;;;;4923256;29;20063;-65
2023/01/02 06:15:48;;;;;;;2.00;1.80;;;;;;;;;;4923222;29;20059;-65
2023/01/02 06:18:13;;;;;;;2.83;1.30;;;;;;;;;;4922981;28;21176;-64
2023/01/02 06:20:39;;;;;;;1.27;1.17;;;;;;;;;;4936694;29;20051;-62
2023/01/02 06:23:04;;;;;;;2.03;1.33;;;;;;;;;;4921668;28;20055;-64
2023/01/02 06:25:30;;;;;;;2.20;1.60;;;;;;;;;;4935406;28;20058;-64
2023/01/02 06:27:55;;;;;;;2.92;1.50;;;;;;;;;;4923245;29;20055;-62
2023/01/02 06:30:20;;;;;;;1.30;1.20;;;;;;;;;;4920694;28;20060;-63
2023/01/02 06:32:46;;;;;;;1.60;1.50;;;;;;;;;;4922657;29;20048;-65
2023/01/02 06:35:11;;;;;;;1.77;1.30;;;;;;;;;;4922767;28;20054;-63
2023/01/02 06:37:43;;;;;;;1.50;1.30;;;;;;;;;;4923196;29;20055;-65
2023/01/02 06:40:08;;;;;;;2.35;1.45;;;;;;;;;;4922817;29;20111;-62
2023/01/02 06:42:34;;;;;;;2.78;1.38;;;;;;;;;;4923235;28;20732;-62
2023/01/02 06:44:59;;;;;;;1.48;1.30;;;;;;;;;;4918899;28;20043;-66
2023/01/02 06:47:25;;;;;;;1.40;1.30;;;;;;;;;;4922470;28;20122;-65
2023/01/02 06:49:50;;;;;;;1.80;1.30;;;;;;;;;;4923226;28;20600;-67
2023/01/02 06:52:15;;;;;;;1.95;1.50;;;;;;;;;;4924747;28;20058;-66
2023/01/02 06:54:41;;;;;;;3.05;1.70;;;;;;;;;;4924810;29;20118;-67
2023/01/02 06:57:06;;;;;;;1.45;1.20;;;;;;;;;;4936821;28;20119;-67
2023/01/02 06:59:32;;;;;;;2.22;1.70;;;;;;;;;;4940294;29;20035;-67
2023/01/02 07:01:57;;;;;;;2.45;1.30;;;;;;;;;;4925312;28;20377;-68
2023/01/02 07:04:23;;;;;;;2.97;1.40;;;;;;;;;;4924895;28;20126;-67
2023/01/02 07:06:48;;;;;;;1.70;1.30;;;;;;;;;;4923524;28;20054;-68
2023/01/02 07:09:13;;;;;;;2.08;1.30;;;;;;;;;;4924656;28;20178;-68
2023/01/02 07:11:39;;;;;;;3.03;1.80;;;;;;;;;;4923935;28;21110;-68
2023/01/02 07:14:04;;;;;;;1.42;1.33;;;;;;;;;;4939190;28;20043;-68
2023/01/02 07:16:30;;;;;;;1.52;1.20;;;;;;;;;;4924533;28;20524;-67
2023/01/02 07:18:55;;;;;;;1.58;1.48;;;;;;;;;;4924831;28;20448;-68
2023/01/02 07:21:21;;;;;;;6.93;1.40;;;;;;;;;;4916313;29;20047;-68
2023/01/02 07:23:46;;;;;;;2.15;1.40;;;;;;;;;;4926085;28;20138;-67
2023/01/02 07:26:12;;;;;;;2.42;1.40;;;;;;;;;;4926232;28;20900;-68
2023/01/02 07:28:38;;;;;;;2.13;1.33;;;;;;;;;;4925539;28;20047;-67
2023/01/02 07:31:07;;;;;;;1.40;1.27;;;;;;;;;;4922322;29;20059;-68
2023/01/02 07:33:33;;;;;;;3.17;1.50;;;;;;;;;;4924572;29;20047;-68
2023/01/02 07:36:00;;;;;;;1.25;1.15;;;;;;;;;;4916241;28;20579;-68
2023/01/02 07:38:26;;;;;;;1.30;1.20;;;;;;;;;;4936047;28;20098;-68
2023/01/02 07:40:51;;;;;;;1.67;1.38;;;;;;;;;;4937326;28;20055;-68
2023/01/02 07:43:18;;;;;;;1.40;1.30;;;;;;;;;;4942841;28;20130;-68
2023/01/02 07:45:43;;;;;;;1.20;1.10;;;;;;;;;;4941921;28;20057;-68
2023/01/02 07:48:09;;;;;;;2.75;1.40;;;;;;;;;;4943182;28;20043;-67
2023/01/02 07:50:34;;;;;;;2.08;1.38;;;;;;;;;;4941083;28;20476;-68
2023/01/02 07:52:59;;;;;;;3.15;1.50;;;;;;;;;;4956571;28;20039;-67
2023/01/02 07:55:25;;;;;;;1.00;1.00;;;;;;;;;;4942656;28;20057;-67
2023/01/02 07:57:50;;;;;;;1.13;1.02;;;;;;;;;;4942206;28;20441;-67
2023/01/02 08:00:19;;;;;;;1.10;1.00;;;;;;;;;;4942660;28;20047;-68
2023/01/02 08:02:45;;;;;;;6.63;1.15;;;;;;;;;;4939248;28;20051;-67
2023/01/02 08:05:11;;;;;;;1.60;1.20;;;;;;;;;;4943871;28;20208;-68
2023/01/02 08:07:36;;;;;;;1.20;1.10;;;;;;;;;;4943104;28;20516;-68
2023/01/02 08:10:02;;;;;;;1.30;1.17;;;;;;;;;;4958077;28;20065;-68
2023/01/02 08:12:28;;;;;;;1.25;1.15;;;;;;;;;;4941125;28;20043;-68
2023/01/02 08:14:53;;;;;;;1.23;1.13;;;;;;;;;;4941918;28;20412;-67
2023/01/02 08:17:19;;;;;;;1.40;1.08;;;;;;;;;;4942430;28;20051;-68
2023/01/02 08:19:44;;;;;;;2.03;1.05;;;;;;;;;;4942021;28;20042;-67
2023/01/02 08:22:09;;;;;;;1.20;1.10;;;;;;;;;;4941617;28;20043;-67
2023/01/02 08:24:35;;;;;;;3.65;1.40;;;;;;;;;;4941613;28;20050;-68
2023/01/02 08:27:00;;;;;;;2.42;1.27;;;;;;;;;;4941883;28;20055;-68
2023/01/02 08:29:26;;;;;;;1.38;1.00;;;;;;;;;;4942611;28;20532;-68
2023/01/02 08:31:51;;;;;;;1.85;1.40;;;;;;;;;;4941285;28;20055;-67
2023/01/02 08:34:17;;;;;;;1.70;1.40;;;;;;;;;;4941544;28;20175;-67
2023/01/02 08:36:43;;;;;;;1.88;1.10;;;;;;;;;;4941756;28;20409;-67
2023/01/02 08:39:08;;;;;;;1.85;1.35;;;;;;;;;;4956470;28;20050;-70
2023/01/02 08:41:36;;;;;;;1.42;1.33;;;;;;;;;;4941885;28;20039;-68
2023/01/02 08:44:02;;;;;;;2.17;1.33;;;;;;;;;;4941815;28;20054;-68
2023/01/02 08:46:29;;;;;;;1.75;1.20;;;;;;;;;;4942275;28;20408;-68
2023/01/02 08:48:55;;;;;;;1.38;1.27;;;;;;;;;;4940220;28;20523;-67
2023/01/02 08:51:21;;;;;;;1.75;1.48;;;;;;;;;;4940680;28;20142;-68
2023/01/02 08:53:47;;;;;;;1.63;1.20;;;;;;;;;;4941148;28;20051;-68
2023/01/02 08:56:28;;;;;;;1.20;1.10;;;;;;;;;;4939048;28;20043;-68
2023/01/02 08:58:55;;;;;;;1.05;1.00;;;;;;;;;;4942285;28;20083;-68
2023/01/02 09:01:21;;;;;;;1.80;1.08;;;;;;;;;;4941187;28;20051;-69
2023/01/02 09:03:47;;;;;;;1.27;1.17;;;;;;;;;;4943136;28;20054;-68
2023/01/02 09:06:12;;;;;;;1.27;1.17;;;;;;;;;;4942919;28;20050;-69
2023/01/02 09:08:38;;;;;;;1.00;0.90;;;;;;;;;;4957479;28;20134;-70
2023/01/02 09:11:15;;;;;;;1.27;1.17;;;;;;;;;;4942648;28;20055;-69
2023/01/02 09:13:41;;;;;;;1.77;1.20;;;;;;;;;;4942679;28;20043;-69
2023/01/02 09:16:08;;;;;;;1.73;1.00;;;;;;;;;;4943537;28;20039;-70
2023/01/02 09:18:34;;;;;;;1.10;1.00;;;;;;;;;;4942552;28;20141;-71
2023/01/02 09:21:00;;;;;;;2.60;1.02;;;;;;;;;;4942757;28;20238;-68
2023/01/02 09:23:26;;;;;;;2.38;1.17;;;;;;;;;;4943440;28;20051;-68
2023/01/02 09:25:51;;;;;;;3.92;0.95;;;;;;;;;;4942693;28;20487;-68
2023/01/02 09:28:16;;;;;;;3.03;0.98;;;;;;;;;;4939711;28;20047;-69
2023/01/02 09:30:42;;;;;;;1.00;1.00;;;;;;;;;;4941851;28;20038;-68
2023/01/02 09:33:07;;;;;;;0.80;0.80;;;;;;;;;;4965292;28;20047;-68
2023/01/02 09:35:34;;;;;;;3.70;1.10;;;;;;;;;;4943763;28;20539;-69
2023/01/02 09:37:59;;;;;;;1.73;0.90;;;;;;;;;;4942074;28;20089;-68
2023/01/02 09:40:25;;;;;;;1.40;1.13;;;;;;;;;;4939086;28;20126;-68
2023/01/02 09:42:51;;;;;;;0.90;0.90;;;;;;;;;;4940906;28;20047;-69
2023/01/02 09:45:17;;;;;;;1.48;1.10;;;;;;;;;;4941918;28;20047;-70
2023/01/02 09:47:45;;;;;;;1.02;1.00;;;;;;;;;;4944136;28;20051;-70
2023/01/02 09:50:30;;;;;;;1.25;0.98;;;;;;;;;;4942230;28;20549;-69
2023/01/02 09:52:59;;;;;;;1.00;0.93;;;;;;;;;;4940660;28;20039;-70
2023/01/02 09:55:51;;;;;;;1.20;1.10;;;;;;;;;;4955789;28;20055;-67
2023/01/02 09:58:29;;;;;;;1.27;0.93;;;;;;;;;;4913048;29;20246;-69
2023/01/02 10:00:55;;;;;;;0.80;0.80;;;;;;;;;;4938761;28;20133;-69
2023/01/02 10:03:21;;;;;;;1.10;0.90;;;;;;;;;;4941707;28;20052;-68
2023/01/02 10:05:49;;;;;;;5.13;1.10;;;;;;;;;;4943106;28;20106;-68
2023/01/02 10:08:26;;;;;;;1.33;1.00;;;;;;;;;;4957623;28;20042;-69
2023/01/02 10:11:01;;;;;;;1.40;1.08;;;;;;;;;;4941367;28;20047;-68
2023/01/02 10:13:31;;;;;;;0.95;0.90;;;;;;;;;;4942394;28;20063;-68
2023/01/02 10:15:59;;;;;;;3.00;1.10;;;;;;;;;;4942979;28;20127;-71
2023/01/02 10:18:34;;;;;;;1.20;1.13;;;;;;;;;;4941880;28;20058;-71
2023/01/02 10:21:05;;;;;;;1.42;1.05;;;;;;;;;;4955543;28;20070;-67
2023/01/02 10:23:51;;;;;;;1.20;0.90;;;;;;;;;;4943501;28;20058;-67
2023/01/02 10:26:18;;;;;;;1.10;1.00;;;;;;;;;;4942381;28;20848;-70
2023/01/02 10:28:56;;;;;;;2.28;1.00;;;;;;;;;;4942562;28;20047;-69
2023/01/02 10:31:28;;;;;;;1.20;1.10;;;;;;;;;;4940974;28;20054;-69
2023/01/02 10:33:58;;;;;;;1.42;1.00;;;;;;;;;;4941136;28;20039;-70
2023/01/02 10:36:31;;;;;;;1.87;1.20;;;;;;;;;;4956837;28;20066;-67
2023/01/02 10:39:18;;;;;;;1.30;1.10;;;;;;;;;;4941053;28;20290;-70
2023/01/02 10:41:48;;;;;;;1.27;1.15;;;;;;;;;;4941435;28;20062;-69
2023/01/02 10:44:31;;;;;;;1.40;1.00;;;;;;;;;;4941939;28;20051;-72
2023/01/02 10:47:05;;;;;;;2.10;1.00;;;;;;;;;;4940694;28;20443;-69
2023/01/02 10:49:33;;;;;;;1.85;0.90;;;;;;;;;;4941855;28;20051;-67
2023/01/02 10:52:31;;;;;;;1.55;1.00;;;;;;;;;;4941472;28;20475;-67
2023/01/02 10:54:57;;;;;;;1.95;0.90;;;;;;;;;;4936869;28;20295;-67
2023/01/02 10:57:37;;;;;;;3.00;0.82;;;;;;;;;;4941240;28;20047;-69
2023/01/02 11:00:07;;;;;;;1.58;0.90;;;;;;;;;;4942767;28;20412;-67
2023/01/02 11:02:37;;;;;;;1.08;0.75;;;;;;;;;;4941423;28;20413;-70
2023/01/02 11:05:05;;;;;;;1.15;0.95;;;;;;;;;;4941424;28;20047;-69
2023/01/02 11:07:33;;;;;;;1.23;1.02;;;;;;;;;;4941751;28;20058;-70
2023/01/02 11:09:59;;;;;;;1.98;0.98;;;;;;;;;;4939716;28;20125;-73
2023/01/02 11:12:24;;;;;;;3.85;0.82;;;;;;;;;;4940768;28;20050;-68
2023/01/02 11:14:50;;;;;;;0.70;0.70;;;;;;;;;;4941203;28;20047;-74
2023/01/02 11:17:21;;;;;;;0.88;0.85;;;;;;;;;;4941983;28;20051;-69
2023/01/02 11:19:49;;;;;;;1.30;0.70;;;;;;;;;;4941193;28;20055;-68
2023/01/02 11:22:18;;;;;;;0.93;0.63;;;;;;;;;;4940822;28;20046;-73
2023/01/02 11:24:56;;;;;;;0.80;0.80;;;;;;;;;;4941878;28;20051;-70
2023/01/02 11:27:21;;;;;;;2.80;0.93;;;;;;;;;;4954540;28;20070;-71
2023/01/02 11:29:49;;;;;;;1.15;0.90;;;;;;;;;;4943882;28;20556;-76
2023/01/02 11:32:40;;;;;;;4.22;0.95;;;;;;;;;;4940203;28;20122;-68
2023/01/02 11:35:35;;;;;;;3.50;0.90;;;;;;;;;;4924299;28;20065;-67
2023/01/02 11:38:01;;;;;;;0.75;0.75;;;;;;;;;;4944671;28;20075;-69
2023/01/02 11:40:29;;;;;;;1.35;0.90;;;;;;;;;;4945820;28;20573;-70
2023/01/02 11:45:42;;;;;;;4.60;0.90;;;;;;;;;;4945521;28;20047;-72
2023/01/02 11:48:16;;;;;;;0.88;0.75;;;;;;;;;;4946189;28;20051;-70
2023/01/02 11:50:42;;;;;;;2.13;0.82;;;;;;;;;;4943663;28;20757;-72
2023/01/02 11:53:17;;;;;;;2.00;1.35;;;;;;;;;;4943262;28;20054;-69
2023/01/02 11:55:45;;;;;;;5.43;2.75;;;;;;;;;;4944364;28;20090;-69
2023/01/02 11:58:14;;;;;;;4.68;2.85;;;;;;;;;;4959677;28;20464;-68
2023/01/02 12:00:42;;;;;;;1.75;1.25;;;;;;;;;;4958377;28;20047;-70
2023/01/02 12:03:25;;;;;;;0.60;0.47;;;;;;;;;;4957009;28;20152;-72
2023/01/02 12:06:16;;;;;;;1.05;0.80;;;;;;;;;;4942683;28;20050;-72
2023/01/02 12:08:53;;;;;;;1.00;0.77;;;;;;;;;;4943025;28;20047;-68
2023/01/02 12:11:40;;;;;;;1.00;0.80;;;;;;;;;;4955672;28;20043;-71
2023/01/02 12:14:18;;;;;;;1.20;1.00;;;;;;;;;;4943265;28;20139;-68
2023/01/02 12:17:11;;;;;;;1.02;0.70;;;;;;;;;;4943321;28;20050;-69
2023/01/02 12:20:04;;;;;;;0.90;0.90;;;;;;;;;;4954468;28;20062;-72
2023/01/02 12:22:57;;;;;;;1.85;0.70;;;;;;;;;;4943215;28;20086;-72
2023/01/02 12:25:55;;;;;;;0.63;0.63;;;;;;;;;;4955955;28;20114;-71
2023/01/02 12:28:39;;;;;;;3.22;0.60;;;;;;;;;;4941989;28;20441;-70
2023/01/02 12:31:42;;;;;;;0.77;0.77;;;;;;;;;;4941955;28;20050;-70
2023/01/02 12:34:45;;;;;;;1.58;0.73;;;;;;;;;;4958313;28;20053;-71
2023/01/02 12:37:32;;;;;;;2.10;0.63;;;;;;;;;;4933813;28;20062;-70
2023/01/02 12:40:04;;;;;;;0.80;0.68;;;;;;;;;;4940592;28;20047;-70
2023/01/02 12:42:33;;;;;;;0.65;0.65;;;;;;;;;;4954806;28;20059;-70
2023/01/02 12:44:59;;;;;;;2.42;0.70;;;;;;;;;;4939914;28;20046;-71
2023/01/02 12:47:30;;;;;;;1.30;0.80;;;;;;;;;;4940270;28;20051;-70
2023/01/02 12:50:25;;;;;;;0.90;0.80;;;;;;;;;;4940387;28;20047;-73
2023/01/02 12:53:14;;;;;;;1.08;0.90;;;;;;;;;;4938187;28;20520;-72
2023/01/02 12:55:49;;;;;;;2.60;1.00;;;;;;;;;;4940616;28;20055;-70
2023/01/02 12:58:36;;;;;;;2.17;1.30;;;;;;;;;;4939556;28;20062;-69
2023/01/02 13:01:42;;;;;;;4.00;0.95;;;;;;;;;;4939065;28;20054;-70
2023/01/02 13:04:21;;;;;;;0.93;0.90;;;;;;;;;;4940053;28;20051;-72
2023/01/02 13:06:53;;;;;;;1.67;0.80;;;;;;;;;;4954147;28;20057;-71
2023/01/02 13:09:31;;;;;;;1.58;0.50;;;;;;;;;;4955028;28;20484;-69
2023/01/02 13:12:10;;;;;;;2.42;1.00;;;;;;;;;;4939663;28;20047;-71
2023/01/02 13:14:40;;;;;;;1.35;1.00;;;;;;;;;;4941243;28;20054;-70
2023/01/02 13:17:24;;;;;;;4.55;0.90;;;;;;;;;;4940431;28;20043;-71
2023/01/02 13:20:03;;;;;;;1.80;1.00;;;;;;;;;;4940394;28;20162;-71
2023/01/02 13:22:36;;;;;;;1.23;0.90;;;;;;;;;;4939765;28;20051;-72
2023/01/02 13:25:03;;;;;;;1.02;0.75;;;;;;;;;;4940318;28;20047;-72
2023/01/02 13:27:29;;;;;;;0.80;0.60;;;;;;;;;;4941448;28;20128;-70
2023/01/02 13:29:54;;;;;;;1.90;0.82;;;;;;;;;;4940987;28;20046;-72
2023/01/02 13:32:30;;;;;;;2.08;0.90;;;;;;;;;;4939609;28;20078;-71
2023/01/02 13:34:59;;;;;;;0.60;0.60;;;;;;;;;;4938703;28;20075;-71
2023/01/02 13:37:27;;;;;;;1.00;1.00;;;;;;;;;;4941222;28;20508;-70
2023/01/02 13:39:59;;;;;;;1.30;1.00;;;;;;;;;;4940346;28;20125;-71
2023/01/02 13:45:21;;;;;;;1.15;0.77;;;;;;;;;;4951563;28;20118;-72
2023/01/02 13:47:50;;;;;;;2.22;0.80;;;;;;;;;;4940565;28;20051;-73
2023/01/02 13:50:33;;;;;;;1.60;0.98;;;;;;;;;;4940404;28;20051;-73
2023/01/02 13:53:10;;;;;;;1.08;0.80;;;;;;;;;;4940215;28;20051;-73
2023/01/02 13:55:38;;;;;;;3.83;0.90;;;;;;;;;;4942044;28;20098;-71
2023/01/02 13:58:14;;;;;;;3.17;1.00;;;;;;;;;;4956612;28;20051;-71
2023/01/02 14:00:51;;;;;;;3.03;1.13;;;;;;;;;;4940729;28;20039;-70
2023/01/02 14:03:22;;;;;;;2.13;1.10;;;;;;;;;;4940755;28;20055;-68
2023/01/02 14:05:57;;;;;;;2.97;1.13;;;;;;;;;;4955626;28;20046;-72
2023/01/02 14:08:37;;;;;;;1.95;1.13;;;;;;;;;;4941232;28;20050;-71
2023/01/02 14:11:12;;;;;;;2.58;1.42;;;;;;;;;;4940611;28;20047;-72
2023/01/02 14:13:47;;;;;;;1.88;1.58;;;;;;;;;;4942365;28;20682;-73
2023/01/02 14:16:21;;;;;;;6.22;1.50;;;;;;;;;;4941716;28;20070;-70
2023/01/02 14:19:12;;;;;;;2.25;1.30;;;;;;;;;;4939335;28;20055;-71
2023/01/02 14:21:51;;;;;;;5.53;1.50;;;;;;;;;;4939360;28;20051;-72
2023/01/02 14:24:37;;;;;;;3.53;1.30;;;;;;;;;;4939984;28;20110;-73
2023/01/02 14:27:26;;;;;;;6.43;1.95;;;;;;;;;;4920567;28;20507;-71
2023/01/02 14:30:11;;;;;;;2.08;1.40;;;;;;;;;;4921240;28;20047;-70
2023/01/02 14:32:43;;;;;;;1.88;1.30;;;;;;;;;;4921454;28;20043;-70
2023/01/02 14:35:14;;;;;;;1.92;1.25;;;;;;;;;;4922486;29;20054;-70
2023/01/02 14:37:44;;;;;;;4.68;1.50;;;;;;;;;;4921699;29;20099;-69
2023/01/02 14:40:21;;;;;;;4.72;1.58;;;;;;;;;;4922212;28;20188;-72
2023/01/02 14:45:47;;;;;;;3.45;1.48;;;;;;;;;;4922111;28;20052;-70
2023/01/02 14:48:19;;;;;;;2.17;1.15;;;;;;;;;;4921572;29;20043;-69
2023/01/02 14:50:47;;;;;;;3.30;1.00;;;;;;;;;;4920814;29;20066;-70
2023/01/02 14:53:50;;;;;;;11.50;1.33;;;;;;;;;;4920941;29;20059;-69
2023/01/02 14:56:20;;;;;;;2.60;1.00;;;;;;;;;;4865700;29;20060;-70
2023/01/02 14:58:48;;;;;;;1.65;1.08;;;;;;;;;;4943341;28;20127;-71
2023/01/02 15:01:22;;;;;;;2.90;1.00;;;;;;;;;;4938858;28;20739;-74
2023/01/02 15:03:57;;;;;;;1.45;1.10;;;;;;;;;;4941440;28;20081;-69
2023/01/02 15:07:15;;;;;;;3.05;1.33;;;;;;;;;;4941542;28;20042;-70
2023/01/02 15:09:46;;;;;;;3.38;1.40;;;;;;;;;;4885576;29;20051;-74
2023/01/02 15:15:13;;;;;;;7.00;2.30;;;;;;;;;;4959567;28;20047;-69
2023/01/02 15:17:39;;;;;;;4.63;2.28;;;;;;;;;;4945241;28;20491;-71
2023/01/02 15:20:06;;;;;;;5.55;2.47;;;;;;;;;;4945198;28;20043;-70
2023/01/02 15:22:33;;;;;;;5.30;2.42;;;;;;;;;;4943577;28;20047;-71